createdAt,value
2023-03-27T00:00:21.075Z,9.719392
2023-03-27T00:01:21.010Z,9.719326
2023-03-27T00:02:21.103Z,9.719378
2023-03-27T00:03:21.036Z,9.719390
2023-03-27T00:04:21.146Z,9.719227
2023-03-27T00:05:20.970Z,9.719290
2023-03-27T00:06:20.946Z,9.719322
2023-03-27T00:07:20.976Z,9.719279
2023-03-27T00:08:20.944Z,9.719218
2023-03-27T00:09:20.987Z,9.719110
2023-03-27T00:10:20.895Z,9.719311
2023-03-27T00:11:20.912Z,9.719103
2023-03-27T00:12:20.872Z,9.719184
2023-03-27T00:13:20.905Z,9.719163
2023-03-27T00:14:20.865Z,9.718854
2023-03-27T00:15:20.873Z,9.719037
2023-03-27T00:16:20.848Z,9.719324
2023-03-27T00:17:20.904Z,9.719317
2023-03-27T00:18:20.845Z,9.719458
2023-03-27T00:19:20.812Z,9.719110
2023-03-27T00:20:20.831Z,9.719186
2023-03-27T00:21:20.818Z,9.719141
2023-03-27T00:22:20.833Z,9.719423
2023-03-27T00:23:20.795Z,9.719461
2023-03-27T00:24:20.765Z,9.719422
2023-03-27T00:25:20.773Z,9.719319
2023-03-27T00:26:20.780Z,9.719111
2023-03-27T00:27:20.773Z,9.719281
2023-03-27T00:28:20.723Z,9.719265
2023-03-27T00:29:20.762Z,9.719172
2023-03-27T00:30:20.743Z,9.719090
2023-03-27T00:31:20.746Z,9.719062
2023-03-27T00:32:20.739Z,9.719176
2023-03-27T00:33:20.745Z,9.719181
2023-03-27T00:34:20.683Z,9.719199
2023-03-27T00:35:20.749Z,9.719195
2023-03-27T00:36:20.714Z,9.719225
2023-03-27T00:37:20.678Z,9.719261
2023-03-27T00:38:21.620Z,9.719311
2023-03-27T00:39:20.642Z,9.719265
2023-03-27T00:40:20.606Z,9.719314
2023-03-27T00:41:20.642Z,9.719216
2023-03-27T00:42:20.623Z,9.719156
2023-03-27T00:43:20.619Z,9.719213
2023-03-27T00:44:20.680Z,9.719229
2023-03-27T00:45:20.601Z,9.719184
2023-03-27T00:46:20.679Z,9.719170
2023-03-27T00:47:20.582Z,9.719137
2023-03-27T00:48:20.523Z,9.719170
2023-03-27T00:49:21.538Z,9.719234
2023-03-27T00:50:20.571Z,9.719287
2023-03-27T00:51:20.544Z,9.719211
2023-03-27T00:52:20.532Z,9.719227
2023-03-27T00:53:20.515Z,9.719135
2023-03-27T00:54:20.510Z,9.719253
2023-03-27T00:55:20.545Z,9.719212
2023-03-27T00:56:20.472Z,9.719192
2023-03-27T00:57:20.488Z,9.719234
2023-03-27T00:58:20.443Z,9.719160
2023-03-27T00:59:20.428Z,9.719180
2023-03-27T01:00:20.420Z,9.719177
2023-03-27T01:01:20.469Z,9.719185
2023-03-27T01:02:20.478Z,9.719214
2023-03-27T01:03:20.503Z,9.719250
2023-03-27T01:04:20.493Z,9.719200
2023-03-27T01:05:20.386Z,9.719247
2023-03-27T01:06:20.416Z,9.719326
2023-03-27T01:07:20.394Z,9.719304
2023-03-27T01:08:20.340Z,9.719293
2023-03-27T01:09:21.631Z,9.719246
2023-03-27T01:10:20.345Z,9.719131
2023-03-27T01:11:20.332Z,9.719189
2023-03-27T01:12:20.356Z,9.718925
2023-03-27T01:13:20.308Z,9.719024
2023-03-27T01:14:20.291Z,9.719183
2023-03-27T01:15:20.288Z,9.719195
2023-03-27T01:16:20.311Z,9.719053
2023-03-27T01:17:20.323Z,9.718934
2023-03-27T01:18:20.257Z,9.718958
2023-03-27T01:19:20.261Z,9.718863
2023-03-27T01:20:20.249Z,9.718834
2023-03-27T01:21:20.236Z,9.718983
2023-03-27T01:22:20.227Z,9.719028
2023-03-27T01:23:58.465Z,9.719028
2023-03-27T01:24:22.197Z,9.719028
2023-03-27T01:25:20.207Z,9.719028
2023-03-27T01:26:36.010Z,9.719028
2023-03-27T01:27:21.223Z,9.719028
2023-03-27T01:28:20.179Z,9.719490
2023-03-27T01:29:20.161Z,9.719384
2023-03-27T01:30:20.150Z,9.719262
2023-03-27T01:31:20.152Z,9.719095
2023-03-27T01:32:20.142Z,9.719100
2023-03-27T01:33:20.111Z,9.719131
2023-03-27T01:34:20.125Z,9.719025
2023-03-27T01:35:21.017Z,9.718984
2023-03-27T01:36:21.092Z,9.719033
2023-03-27T01:37:20.083Z,9.719091
2023-03-27T01:38:20.094Z,9.719058
2023-03-27T01:39:20.061Z,9.719090
2023-03-27T01:40:20.071Z,9.719052
2023-03-27T01:41:20.050Z,9.719150
2023-03-27T01:42:20.060Z,9.719119
2023-03-27T01:43:20.016Z,9.719234
2023-03-27T01:44:20.083Z,9.719131
2023-03-27T01:45:20.048Z,9.719143
2023-03-27T01:46:20.031Z,9.719076
2023-03-27T01:47:19.980Z,9.719125
2023-03-27T01:48:19.995Z,9.719189
2023-03-27T01:49:19.987Z,9.719238
2023-03-27T01:50:19.953Z,9.719144
2023-03-27T01:51:19.985Z,9.719103
2023-03-27T01:52:19.957Z,9.719218
2023-03-27T01:53:19.928Z,9.719308
2023-03-27T01:54:19.926Z,9.719177
2023-03-27T01:55:19.938Z,9.719269
2023-03-27T01:56:19.910Z,9.719240
2023-03-27T01:57:19.931Z,9.719350
2023-03-27T01:58:19.896Z,9.719071
2023-03-27T01:59:19.893Z,9.718987
2023-03-27T02:00:19.900Z,9.720069
2023-03-27T02:01:19.889Z,9.719477
2023-03-27T02:02:19.844Z,9.719625
2023-03-27T02:03:19.823Z,9.719625
2023-03-27T02:04:19.869Z,9.719625
2023-03-27T02:05:19.859Z,9.719625
2023-03-27T02:06:51.723Z,9.719599
2023-03-27T02:07:19.807Z,9.719294
2023-03-27T02:08:19.801Z,9.719255
2023-03-27T02:09:19.889Z,9.719457
2023-03-27T02:10:19.783Z,9.719364
2023-03-27T02:11:19.775Z,9.718925
2023-03-27T02:12:19.776Z,9.718372
2023-03-27T02:13:19.803Z,9.718731
2023-03-27T02:14:19.749Z,9.718341
2023-03-27T02:15:23.160Z,9.718758
2023-03-27T02:16:20.747Z,9.718816
2023-03-27T02:17:19.815Z,9.719213
2023-03-27T02:18:19.731Z,9.719349
2023-03-27T02:19:19.723Z,9.719349
2023-03-27T02:20:19.701Z,9.719349
2023-03-27T02:21:19.675Z,9.719349
2023-03-27T02:22:19.642Z,9.719349
2023-03-27T02:23:19.659Z,9.719349
2023-03-27T02:24:19.652Z,9.719349
2023-03-27T02:25:19.627Z,9.719349
2023-03-27T02:26:19.622Z,9.719085
2023-03-27T02:27:19.596Z,9.718986
2023-03-27T02:28:19.593Z,9.719105
2023-03-27T02:29:19.594Z,9.719190
2023-03-27T02:30:19.575Z,9.719166
2023-03-27T02:31:33.711Z,9.719281
2023-03-27T02:32:20.623Z,9.718978
2023-03-27T02:33:19.647Z,9.718901
2023-03-27T02:34:19.558Z,9.718799
2023-03-27T02:35:19.552Z,9.719018
2023-03-27T02:36:19.515Z,9.719078
2023-03-27T02:37:19.517Z,9.719404
2023-03-27T02:38:19.527Z,9.719373
2023-03-27T02:39:19.495Z,9.719337
2023-03-27T02:40:19.487Z,9.719385
2023-03-27T02:41:19.457Z,9.719287
2023-03-27T02:42:19.493Z,9.719375
2023-03-27T02:43:19.465Z,9.719559
2023-03-27T02:44:19.457Z,9.719672
2023-03-27T02:45:19.422Z,9.719673
2023-03-27T02:46:19.463Z,9.719750
2023-03-27T02:47:19.429Z,9.719607
2023-03-27T02:48:19.423Z,9.719566
2023-03-27T02:49:19.423Z,9.719450
2023-03-27T02:50:19.413Z,9.719299
2023-03-27T02:51:19.407Z,9.719156
2023-03-27T02:52:19.381Z,9.719540
2023-03-27T02:53:19.383Z,9.719455
2023-03-27T02:54:19.399Z,9.719429
2023-03-27T02:55:19.368Z,9.719853
2023-03-27T02:56:19.337Z,9.719530
2023-03-27T02:57:19.327Z,9.719574
2023-03-27T02:58:19.307Z,9.719324
2023-03-27T02:59:19.346Z,9.719277
2023-03-27T03:00:20.300Z,9.719412
2023-03-27T03:01:19.309Z,9.719388
2023-03-27T03:02:19.411Z,9.719280
2023-03-27T03:03:19.347Z,9.719257
2023-03-27T03:04:19.248Z,9.719197
2023-03-27T03:05:19.252Z,9.719238
2023-03-27T03:06:19.237Z,9.719129
2023-03-27T03:07:19.214Z,9.719316
2023-03-27T03:08:19.232Z,9.719307
2023-03-27T03:09:19.197Z,9.719253
2023-03-27T03:10:19.227Z,9.719200
2023-03-27T03:11:19.188Z,9.719247
2023-03-27T03:12:19.194Z,9.719190
2023-03-27T03:13:19.196Z,9.719213
2023-03-27T03:14:19.173Z,9.719263
2023-03-27T03:15:19.144Z,9.719283
2023-03-27T03:16:19.222Z,9.719263
2023-03-27T03:17:19.130Z,9.719272
2023-03-27T03:18:19.111Z,9.719177
2023-03-27T03:19:19.124Z,9.719229
2023-03-27T03:20:19.104Z,9.719193
2023-03-27T03:21:19.090Z,9.719296
2023-03-27T03:22:19.107Z,9.719318
2023-03-27T03:23:19.097Z,9.719369
2023-03-27T03:24:19.088Z,9.719289
2023-03-27T03:25:19.052Z,9.719302
2023-03-27T03:26:19.101Z,9.719198
2023-03-27T03:27:19.051Z,9.719150
2023-03-27T03:28:19.025Z,9.719252
2023-03-27T03:29:19.101Z,9.719024
2023-03-27T03:30:19.004Z,9.719072
2023-03-27T03:31:19.035Z,9.719118
2023-03-27T03:32:19.004Z,9.719402
2023-03-27T03:33:19.003Z,9.719333
2023-03-27T03:34:19.145Z,9.719201
2023-03-27T03:35:18.944Z,9.719311
2023-03-27T03:36:18.940Z,9.719225
2023-03-27T03:37:18.917Z,9.719277
2023-03-27T03:38:18.928Z,9.719187
2023-03-27T03:39:18.948Z,9.719164
2023-03-27T03:40:18.912Z,9.719339
2023-03-27T03:41:18.919Z,9.719180
2023-03-27T03:42:22.330Z,9.719132
2023-03-27T03:43:18.869Z,9.719110
2023-03-27T03:44:18.912Z,9.719202
2023-03-27T03:45:18.881Z,9.718425
2023-03-27T03:46:18.915Z,9.719396
2023-03-27T03:47:18.840Z,9.719257
2023-03-27T03:48:18.829Z,9.719257
2023-03-27T03:49:18.822Z,9.718917
2023-03-27T03:50:18.832Z,9.719447
2023-03-27T03:51:18.811Z,9.719316
2023-03-27T03:52:18.835Z,9.719450
2023-03-27T03:53:18.811Z,9.719687
2023-03-27T03:54:18.774Z,9.719535
2023-03-27T03:55:18.779Z,9.719384
2023-03-27T03:56:18.777Z,9.719311
2023-03-27T03:57:18.804Z,9.719288
2023-03-27T03:58:18.748Z,9.719232
2023-03-27T03:59:18.730Z,9.719127
2023-03-27T04:00:18.734Z,9.719229
2023-03-27T04:01:18.724Z,9.719172
2023-03-27T04:02:18.736Z,9.719191
2023-03-27T04:03:18.813Z,9.719219
2023-03-27T04:04:18.707Z,9.719342
2023-03-27T04:05:18.714Z,9.719101
2023-03-27T04:06:20.485Z,9.719128
2023-03-27T04:07:18.665Z,9.719069
2023-03-27T04:08:18.640Z,9.719178
2023-03-27T04:09:18.646Z,9.719186
2023-03-27T04:10:18.602Z,9.719189
2023-03-27T04:11:18.608Z,9.719161
2023-03-27T04:12:18.625Z,9.719098
2023-03-27T04:13:18.601Z,9.719259
2023-03-27T04:14:18.612Z,9.719127
2023-03-27T04:15:18.588Z,9.719217
2023-03-27T04:16:18.585Z,9.719222
2023-03-27T04:17:18.561Z,9.719279
2023-03-27T04:18:18.599Z,9.719223
2023-03-27T04:19:18.546Z,9.719231
2023-03-27T04:20:18.537Z,9.719250
2023-03-27T04:21:18.515Z,9.719218
2023-03-27T04:22:18.485Z,9.719246
2023-03-27T04:23:18.511Z,9.719337
2023-03-27T04:24:18.469Z,9.719295
2023-03-27T04:25:18.549Z,9.719275
2023-03-27T04:26:18.499Z,9.719249
2023-03-27T04:27:18.455Z,9.719362
2023-03-27T04:28:18.511Z,9.719436
2023-03-27T04:29:18.472Z,9.719398
2023-03-27T04:30:18.437Z,9.719291
2023-03-27T04:31:18.428Z,9.719288
2023-03-27T04:32:18.433Z,9.719376
2023-03-27T04:33:18.557Z,9.719511
2023-03-27T04:34:18.416Z,9.719555
2023-03-27T04:35:18.373Z,9.719475
2023-03-27T04:36:18.442Z,9.719403
2023-03-27T04:37:18.377Z,9.719285
2023-03-27T04:38:19.354Z,9.719270
2023-03-27T04:39:18.376Z,9.719244
2023-03-27T04:40:18.390Z,9.719311
2023-03-27T04:41:18.302Z,9.719274
2023-03-27T04:42:18.307Z,9.719253
2023-03-27T04:43:19.337Z,9.719232
2023-03-27T04:44:18.342Z,9.719196
2023-03-27T04:45:18.309Z,9.719090
2023-03-27T04:46:18.368Z,9.718773
2023-03-27T04:47:18.291Z,9.718784
2023-03-27T04:48:18.282Z,9.719147
2023-03-27T04:49:18.269Z,9.719210
2023-03-27T04:50:18.280Z,9.719187
2023-03-27T04:51:18.255Z,9.719199
2023-03-27T04:52:18.248Z,9.719153
2023-03-27T04:53:18.230Z,9.719217
2023-03-27T04:54:18.218Z,9.719249
2023-03-27T04:55:18.254Z,9.719254
2023-03-27T04:56:18.206Z,9.719211
2023-03-27T04:57:18.225Z,9.719196
2023-03-27T04:58:18.191Z,9.719238
2023-03-27T04:59:18.167Z,9.719205
2023-03-27T05:00:18.215Z,9.719203
2023-03-27T05:01:18.170Z,9.719643
2023-03-27T05:02:18.154Z,9.719657
2023-03-27T05:03:18.166Z,9.719608
2023-03-27T05:04:18.109Z,9.719453
2023-03-27T05:05:18.090Z,9.719317
2023-03-27T05:06:18.151Z,9.718437
2023-03-27T05:07:18.052Z,9.718562
2023-03-27T05:08:18.082Z,9.718848
2023-03-27T05:09:18.078Z,9.719080
2023-03-27T05:10:21.697Z,9.719196
2023-03-27T05:11:18.079Z,9.719248
2023-03-27T05:12:18.031Z,9.719404
2023-03-27T05:13:18.040Z,9.719489
2023-03-27T05:14:18.047Z,9.719320
2023-03-27T05:15:18.001Z,9.719238
2023-03-27T05:16:18.020Z,9.719320
2023-03-27T05:17:17.993Z,9.719245
2023-03-27T05:18:17.947Z,9.719346
2023-03-27T05:19:17.974Z,9.718882
2023-03-27T05:20:18.070Z,9.719215
2023-03-27T05:21:17.953Z,9.719106
2023-03-27T05:22:17.913Z,9.719086
2023-03-27T05:23:17.941Z,9.719270
2023-03-27T05:24:17.930Z,9.719331
2023-03-27T05:25:17.940Z,9.719413
2023-03-27T05:26:17.904Z,9.719571
2023-03-27T05:27:17.889Z,9.719522
2023-03-27T05:28:17.914Z,9.719310
2023-03-27T05:29:17.867Z,9.719341
2023-03-27T05:30:17.864Z,9.719218
2023-03-27T05:31:17.936Z,9.719179
2023-03-27T05:32:17.830Z,9.719129
2023-03-27T05:33:17.895Z,9.719124
2023-03-27T05:34:17.821Z,9.719112
2023-03-27T05:35:17.920Z,9.719053
2023-03-27T05:36:17.852Z,9.719130
2023-03-27T05:37:17.793Z,9.719160
2023-03-27T05:38:17.812Z,9.719249
2023-03-27T05:39:17.800Z,9.719272
2023-03-27T05:40:17.778Z,9.719246
2023-03-27T05:41:17.737Z,9.719204
2023-03-27T05:42:17.749Z,9.719168
2023-03-27T05:43:17.785Z,9.719126
2023-03-27T05:44:17.759Z,9.719239
2023-03-27T05:45:17.738Z,9.719233
2023-03-27T05:46:20.868Z,9.719214
2023-03-27T05:47:17.717Z,9.719175
2023-03-27T05:48:17.713Z,9.718990
2023-03-27T05:49:17.686Z,9.719174
2023-03-27T05:50:17.672Z,9.719140
2023-03-27T05:51:17.657Z,9.719403
2023-03-27T05:52:17.775Z,9.719257
2023-03-27T05:53:17.650Z,9.719293
2023-03-27T05:54:17.668Z,9.719162
2023-03-27T05:55:17.646Z,9.719372
2023-03-27T05:56:17.617Z,9.719273
2023-03-27T05:57:17.752Z,9.719316
2023-03-27T05:58:17.581Z,9.719339
2023-03-27T05:59:17.591Z,9.719303
2023-03-27T06:00:17.605Z,9.718983
2023-03-27T06:01:17.570Z,9.719037
2023-03-27T06:02:19.184Z,9.718953
2023-03-27T06:03:17.689Z,9.718986
2023-03-27T06:04:17.577Z,9.718958
2023-03-27T06:05:17.540Z,9.718969
2023-03-27T06:06:17.518Z,9.719017
2023-03-27T06:07:17.530Z,9.719108
2023-03-27T06:08:17.507Z,9.718980
2023-03-27T06:09:17.486Z,9.718916
2023-03-27T06:10:17.485Z,9.719050
2023-03-27T06:11:17.466Z,9.718987
2023-03-27T06:12:17.459Z,9.718801
2023-03-27T06:13:17.499Z,9.718789
2023-03-27T06:14:17.445Z,9.718871
2023-03-27T06:15:17.434Z,9.718883
2023-03-27T06:16:17.475Z,9.718916
2023-03-27T06:17:17.413Z,9.719098
2023-03-27T06:18:17.388Z,9.718917
2023-03-27T06:19:17.469Z,9.718910
2023-03-27T06:20:17.405Z,9.718959
2023-03-27T06:21:17.383Z,9.719088
2023-03-27T06:22:17.336Z,9.719232
2023-03-27T06:23:17.354Z,9.718980
2023-03-27T06:24:17.357Z,9.718909
2023-03-27T06:25:17.395Z,9.718789
2023-03-27T06:26:17.318Z,9.718946
2023-03-27T06:27:17.383Z,9.718966
2023-03-27T06:28:17.283Z,9.719078
2023-03-27T06:29:17.307Z,9.719103
2023-03-27T06:30:17.392Z,9.719240
2023-03-27T06:31:17.356Z,9.719284
2023-03-27T06:32:17.310Z,9.719160
2023-03-27T06:33:17.250Z,9.719219
2023-03-27T06:34:17.261Z,9.719162
2023-03-27T06:35:18.836Z,9.719108
2023-03-27T06:36:17.244Z,9.719019
2023-03-27T06:37:17.210Z,9.719213
2023-03-27T06:38:17.221Z,9.719152
2023-03-27T06:39:17.244Z,9.718809
2023-03-27T06:40:17.329Z,9.719002
2023-03-27T06:41:17.188Z,9.719005
2023-03-27T06:42:17.181Z,9.719152
2023-03-27T06:43:17.146Z,9.719395
2023-03-27T06:44:17.126Z,9.718753
2023-03-27T06:45:17.173Z,9.718570
2023-03-27T06:46:17.145Z,9.718983
2023-03-27T06:47:17.160Z,9.719304
2023-03-27T06:48:20.572Z,9.719321
2023-03-27T06:49:18.094Z,9.719261
2023-03-27T06:50:17.106Z,9.719112
2023-03-27T06:51:17.103Z,9.719033
2023-03-27T06:52:17.064Z,9.719148
2023-03-27T06:53:26.737Z,9.719100
2023-03-27T06:54:19.095Z,9.719254
2023-03-27T06:55:17.073Z,9.719272
2023-03-27T06:56:17.042Z,9.719239
2023-03-27T06:57:17.196Z,9.719189
2023-03-27T06:58:17.053Z,9.719208
2023-03-27T06:59:16.998Z,9.719203
2023-03-27T07:00:17.037Z,9.719251
2023-03-27T07:01:17.012Z,9.719244
2023-03-27T07:02:17.038Z,9.719287
2023-03-27T07:03:17.058Z,9.719177
2023-03-27T07:04:16.954Z,9.719205
2023-03-27T07:05:16.935Z,9.719260
2023-03-27T07:06:16.981Z,9.719226
2023-03-27T07:07:17.180Z,9.719279
2023-03-27T07:09:17.897Z,9.719144
2023-03-27T07:10:16.919Z,9.719192
2023-03-27T07:11:17.192Z,9.719190
2023-03-27T07:12:17.857Z,9.719194
2023-03-27T07:13:16.856Z,9.719246
2023-03-27T07:14:16.844Z,9.719290
2023-03-27T07:15:17.259Z,9.719295
2023-03-27T07:16:16.885Z,9.719112
2023-03-27T07:17:16.820Z,9.719168
2023-03-27T07:18:17.809Z,9.719219
2023-03-27T07:19:16.794Z,9.719201
2023-03-27T07:20:16.802Z,9.719182
2023-03-27T07:21:16.778Z,9.719108
2023-03-27T07:22:16.779Z,9.719186
2023-03-27T07:23:16.755Z,9.719105
2023-03-27T07:24:17.725Z,9.719132
2023-03-27T07:25:16.754Z,9.719223
2023-03-27T07:26:16.738Z,9.719136
2023-03-27T07:27:16.735Z,9.719139
2023-03-27T07:28:16.745Z,9.719180
2023-03-27T07:29:16.762Z,9.718964
2023-03-27T07:30:16.679Z,9.719106
2023-03-27T07:31:32.583Z,9.719051
2023-03-27T07:32:29.505Z,9.719129
2023-03-27T07:33:18.752Z,9.719237
2023-03-27T07:34:16.815Z,9.719493
2023-03-27T07:35:16.671Z,9.719358
2023-03-27T07:36:16.636Z,9.719289
2023-03-27T07:37:16.638Z,9.719344
2023-03-27T07:38:16.633Z,9.719331
2023-03-27T07:39:16.590Z,9.719178
2023-03-27T07:40:17.353Z,9.719251
2023-03-27T07:41:16.586Z,9.719111
2023-03-27T07:42:16.583Z,9.719224
2023-03-27T07:43:16.626Z,9.719173
2023-03-27T07:44:16.562Z,9.719231
2023-03-27T07:45:16.559Z,9.719277
2023-03-27T07:46:16.592Z,9.719325
2023-03-27T07:47:16.518Z,9.719295
2023-03-27T07:48:16.510Z,9.719129
2023-03-27T07:49:16.499Z,9.719114
2023-03-27T07:50:16.493Z,9.719155
2023-03-27T07:51:16.480Z,9.719153
2023-03-27T07:52:16.667Z,9.719372
2023-03-27T07:53:34.042Z,9.719302
2023-03-27T07:54:17.455Z,9.719329
2023-03-27T07:55:16.447Z,9.719280
2023-03-27T07:56:16.489Z,9.719275
2023-03-27T07:57:16.496Z,9.719355
2023-03-27T07:58:16.540Z,9.719317
2023-03-27T07:59:16.402Z,9.719409
2023-03-27T08:00:16.388Z,9.719324
2023-03-27T08:01:16.453Z,9.719280
2023-03-27T08:02:16.366Z,9.719241
2023-03-27T08:03:16.496Z,9.719129
2023-03-27T08:04:16.441Z,9.719217
2023-03-27T08:05:16.383Z,9.719225
2023-03-27T08:07:48.237Z,9.719189
2023-03-27T08:08:16.351Z,9.719196
2023-03-27T08:09:16.352Z,9.719274
2023-03-27T08:10:16.315Z,9.719046
2023-03-27T08:11:29.578Z,9.719047
2023-03-27T08:12:18.306Z,9.719119
2023-03-27T08:13:16.286Z,9.719158
2023-03-27T08:14:16.278Z,9.719124
2023-03-27T08:15:16.263Z,9.719217
2023-03-27T08:16:16.332Z,9.719172
2023-03-27T08:17:17.716Z,9.719082
2023-03-27T08:18:16.248Z,9.719074
2023-03-27T08:19:16.219Z,9.719248
2023-03-27T08:20:16.226Z,9.719147
2023-03-27T08:21:16.184Z,9.719198
2023-03-27T08:22:16.182Z,9.719288
2023-03-27T08:23:16.196Z,9.719287
2023-03-27T08:24:16.170Z,9.719169
2023-03-27T08:25:16.207Z,9.719229
2023-03-27T08:26:16.125Z,9.719127
2023-03-27T08:27:16.228Z,9.719028
2023-03-27T08:28:16.115Z,9.718852
2023-03-27T08:29:16.233Z,9.719027
2023-03-27T08:30:16.919Z,9.718870
2023-03-27T08:31:17.174Z,9.718971
2023-03-27T08:32:16.087Z,9.718941
2023-03-27T08:33:16.080Z,9.718970
2023-03-27T08:34:16.048Z,9.718881
2023-03-27T08:35:16.147Z,9.718925
2023-03-27T08:36:16.115Z,9.718938
2023-03-27T08:37:16.020Z,9.718892
2023-03-27T08:38:26.291Z,9.719015
2023-03-27T08:39:18.075Z,9.719022
2023-03-27T08:40:16.013Z,9.719208
2023-03-27T08:41:16.013Z,9.719197
2023-03-27T08:42:18.443Z,9.719219
2023-03-27T08:43:15.975Z,9.719254
2023-03-27T08:44:15.948Z,9.719177
2023-03-27T08:45:15.960Z,9.719313
2023-03-27T08:46:16.022Z,9.719281
2023-03-27T08:47:15.965Z,9.719314
2023-03-27T08:48:15.947Z,9.719257
2023-03-27T08:49:15.927Z,9.719292
2023-03-27T08:50:15.928Z,9.719371
2023-03-27T08:51:15.938Z,9.719351
2023-03-27T08:52:15.866Z,9.719399
2023-03-27T08:53:16.005Z,9.719357
2023-03-27T08:54:15.933Z,9.719240
2023-03-27T08:55:15.846Z,9.719184
2023-03-27T08:56:15.849Z,9.719400
2023-03-27T08:57:15.897Z,9.719404
2023-03-27T08:58:15.841Z,9.719407
2023-03-27T08:59:17.353Z,9.719321
2023-03-27T09:00:15.790Z,9.719268
2023-03-27T09:01:15.840Z,9.719400
2023-03-27T09:02:15.812Z,9.719367
2023-03-27T09:03:15.936Z,9.719427
2023-03-27T09:04:15.772Z,9.719222
2023-03-27T09:05:15.758Z,9.719261
2023-03-27T09:06:15.724Z,9.719284
2023-03-27T09:07:15.721Z,9.719380
2023-03-27T09:08:15.735Z,9.719350
2023-03-27T09:09:15.717Z,9.719363
2023-03-27T09:10:15.727Z,9.719217
2023-03-27T09:11:15.707Z,9.719109
2023-03-27T09:12:15.686Z,9.719239
2023-03-27T09:13:15.704Z,9.719330
2023-03-27T09:14:15.672Z,9.719337
2023-03-27T09:15:15.697Z,9.719263
2023-03-27T09:16:15.829Z,9.719311
2023-03-27T09:17:15.663Z,9.719327
2023-03-27T09:18:15.632Z,9.719379
2023-03-27T09:19:15.658Z,9.719356
2023-03-27T09:20:15.642Z,9.719338
2023-03-27T09:21:15.612Z,9.719305
2023-03-27T09:22:15.578Z,9.719328
2023-03-27T09:23:15.575Z,9.719333
2023-03-27T09:24:15.585Z,9.719255
2023-03-27T09:25:15.557Z,9.719337
2023-03-27T09:26:15.544Z,9.719316
2023-03-27T09:27:15.527Z,9.719301
2023-03-27T09:28:15.550Z,9.719291
2023-03-27T09:29:20.071Z,9.719224
2023-03-27T09:30:15.500Z,9.719250
2023-03-27T09:31:15.557Z,9.719120
2023-03-27T09:32:15.546Z,9.719139
2023-03-27T09:33:15.542Z,9.719221
2023-03-27T09:34:15.482Z,9.719260
2023-03-27T09:35:15.533Z,9.719272
2023-03-27T09:36:15.509Z,9.719286
2023-03-27T09:37:15.450Z,9.719344
2023-03-27T09:38:15.440Z,9.719303
2023-03-27T09:39:15.449Z,9.719229
2023-03-27T09:40:15.430Z,9.719225
2023-03-27T09:41:15.422Z,9.719222
2023-03-27T09:42:15.417Z,9.719183
2023-03-27T09:43:15.409Z,9.719249
2023-03-27T09:44:15.399Z,9.719290
2023-03-27T09:45:15.400Z,9.719273
2023-03-27T09:46:15.364Z,9.719239
2023-03-27T09:47:15.349Z,9.719301
2023-03-27T09:48:15.364Z,9.719287
2023-03-27T09:49:15.321Z,9.719211
2023-03-27T09:50:15.401Z,9.719194
2023-03-27T09:51:15.304Z,9.719263
2023-03-27T09:52:15.311Z,9.719257
2023-03-27T09:53:15.454Z,9.719179
2023-03-27T09:54:15.291Z,9.719341
2023-03-27T09:55:15.295Z,9.719139
2023-03-27T09:56:15.291Z,9.719223
2023-03-27T09:57:15.329Z,9.719315
2023-03-27T09:58:15.249Z,9.719323
2023-03-27T09:59:15.262Z,9.719123
2023-03-27T10:00:15.270Z,9.719213
2023-03-27T10:01:15.208Z,9.719179
2023-03-27T10:02:15.206Z,9.718897
2023-03-27T10:03:16.746Z,9.719063
2023-03-27T10:04:15.244Z,9.719173
2023-03-27T10:05:15.180Z,9.719294
2023-03-27T10:06:15.171Z,9.719255
2023-03-27T10:07:15.152Z,9.719043
2023-03-27T10:08:15.146Z,9.718864
2023-03-27T10:09:15.142Z,9.719174
2023-03-27T10:10:15.195Z,9.719234
2023-03-27T10:11:15.126Z,9.719022
2023-03-27T10:12:15.171Z,9.719062
2023-03-27T10:13:15.109Z,9.719376
2023-03-27T10:14:15.069Z,9.719382
2023-03-27T10:15:15.076Z,9.719321
2023-03-27T10:16:15.135Z,9.719008
2023-03-27T10:17:15.104Z,9.719155
2023-03-27T10:18:15.088Z,9.719223
2023-03-27T10:19:15.071Z,9.719222
2023-03-27T10:20:15.062Z,9.719298
2023-03-27T10:21:15.037Z,9.719243
2023-03-27T10:22:15.041Z,9.719131
2023-03-27T10:23:15.009Z,9.719147
2023-03-27T10:24:15.013Z,9.719228
2023-03-27T10:25:15.005Z,9.719234
2023-03-27T10:26:14.990Z,9.719218
2023-03-27T10:27:14.955Z,9.719262
2023-03-27T10:28:15.077Z,9.719118
2023-03-27T10:29:14.931Z,9.719155
2023-03-27T10:30:14.940Z,9.719125
2023-03-27T10:31:14.952Z,9.719107
2023-03-27T10:32:14.968Z,9.719137
2023-03-27T10:33:14.936Z,9.719088
2023-03-27T10:34:14.938Z,9.719075
2023-03-27T10:35:14.920Z,9.718978
2023-03-27T10:36:14.865Z,9.718928
2023-03-27T10:37:14.849Z,9.719007
2023-03-27T10:38:14.841Z,9.719090
2023-03-27T10:39:14.865Z,9.719088
2023-03-27T10:40:14.847Z,9.719137
2023-03-27T10:41:14.827Z,9.719190
2023-03-27T10:42:14.829Z,9.719215
2023-03-27T10:43:14.821Z,9.719239
2023-03-27T10:44:14.800Z,9.719138
2023-03-27T10:45:14.818Z,9.719115
2023-03-27T10:46:14.917Z,9.718986
2023-03-27T10:47:14.757Z,9.719129
2023-03-27T10:48:14.748Z,9.719090
2023-03-27T10:49:16.224Z,9.719108
2023-03-27T10:50:15.728Z,9.719008
2023-03-27T10:51:14.720Z,9.719127
2023-03-27T10:52:14.762Z,9.719136
2023-03-27T10:53:14.915Z,9.719220
2023-03-27T10:54:14.785Z,9.719235
2023-03-27T10:55:14.768Z,9.719282
2023-03-27T10:56:14.668Z,9.719259
2023-03-27T10:57:14.771Z,9.719184
2023-03-27T10:58:14.668Z,9.719137
2023-03-27T10:59:14.657Z,9.719141
2023-03-27T11:00:14.753Z,9.719218
2023-03-27T11:01:14.655Z,9.719243
2023-03-27T11:02:14.643Z,9.719229
2023-03-27T11:03:14.730Z,9.719085
2023-03-27T11:04:14.676Z,9.719069
2023-03-27T11:05:14.603Z,9.719139
2023-03-27T11:06:14.575Z,9.719153
2023-03-27T11:07:15.937Z,9.719276
2023-03-27T11:08:15.599Z,9.719151
2023-03-27T11:09:14.583Z,9.719125
2023-03-27T11:10:14.528Z,9.719070
2023-03-27T11:11:14.542Z,9.719190
2023-03-27T11:12:14.538Z,9.719255
2023-03-27T11:13:14.495Z,9.719150
2023-03-27T11:14:14.664Z,9.719191
2023-03-27T11:15:14.480Z,9.719110
2023-03-27T11:16:14.514Z,9.719246
2023-03-27T11:17:14.466Z,9.719277
2023-03-27T11:18:14.464Z,9.719151
2023-03-27T11:19:14.459Z,9.719318
2023-03-27T11:20:14.468Z,9.719179
2023-03-27T11:21:14.439Z,9.719118
2023-03-27T11:22:14.462Z,9.719169
2023-03-27T11:23:14.402Z,9.719245
2023-03-27T11:24:14.419Z,9.719197
2023-03-27T11:25:14.455Z,9.719525
2023-03-27T11:26:14.383Z,9.719345
2023-03-27T11:27:14.757Z,9.719254
2023-03-27T11:28:14.409Z,9.719040
2023-03-27T11:29:14.352Z,9.719177
2023-03-27T11:30:14.370Z,9.719126
2023-03-27T11:31:14.364Z,9.719295
2023-03-27T11:32:14.334Z,9.719241
2023-03-27T11:33:14.321Z,9.719254
2023-03-27T11:34:14.292Z,9.719410
2023-03-27T11:35:15.307Z,9.719319
2023-03-27T11:36:14.282Z,9.719237
2023-03-27T11:37:14.269Z,9.719176
2023-03-27T11:38:14.269Z,9.719190
2023-03-27T11:39:14.307Z,9.719373
2023-03-27T11:40:14.241Z,9.719387
2023-03-27T11:41:15.444Z,9.719389
2023-03-27T11:42:14.261Z,9.719394
2023-03-27T11:43:14.351Z,9.719259
2023-03-27T11:44:15.230Z,9.719408
2023-03-27T11:45:14.233Z,9.719281
2023-03-27T11:46:14.236Z,9.719261